createdAt,value
2022-09-27T00:00:43.190Z,76.10
2022-09-27T00:03:45.718Z,76.00
2022-09-27T00:06:47.864Z,76.10
2022-09-27T00:09:49.916Z,76.00
2022-09-27T00:12:52.327Z,76.00
2022-09-27T00:16:03.417Z,76.00
2022-09-27T00:19:08.748Z,76.10
2022-09-27T00:22:10.999Z,76.00
2022-09-27T00:25:13.125Z,76.00
2022-09-27T00:28:15.369Z,75.90
2022-09-27T00:31:22.359Z,76.00
2022-09-27T00:34:25.781Z,76.80
2022-09-27T00:37:27.938Z,76.00
2022-09-27T00:40:30.052Z,76.00
2022-09-27T00:44:04.695Z,76.00
2022-09-27T00:47:25.108Z,76.10
2022-09-27T00:50:36.189Z,76.10
2022-09-27T00:53:49.406Z,76.00
2022-09-27T00:56:52.518Z,76.00
2022-09-27T01:00:15.497Z,76.10
2022-09-27T01:03:30.944Z,76.10
2022-09-27T01:06:33.086Z,76.10
2022-09-27T01:09:35.778Z,76.10
2022-09-27T01:12:48.248Z,76.10
2022-09-27T01:16:35.307Z,76.20
2022-09-27T01:19:56.135Z,76.30
2022-09-27T01:23:17.169Z,76.20
2022-09-27T01:27:01.052Z,76.20
2022-09-27T01:30:21.963Z,76.30
2022-09-27T01:33:47.838Z,76.30
2022-09-27T01:36:54.188Z,76.30
2022-09-27T01:40:20.736Z,76.30
2022-09-27T01:44:14.075Z,76.40
2022-09-27T01:47:32.159Z,76.30
2022-09-27T01:50:53.151Z,76.40
2022-09-27T01:53:58.781Z,76.40
2022-09-27T01:57:26.806Z,76.40
2022-09-27T02:00:30.055Z,76.50
2022-09-27T02:03:44.813Z,76.50
2022-09-27T02:07:12.144Z,77.40
2022-09-27T02:10:24.949Z,76.70
2022-09-27T02:13:38.512Z,76.60
2022-09-27T02:17:09.369Z,76.70
2022-09-27T02:20:20.092Z,76.60
2022-09-27T02:23:40.117Z,76.70
2022-09-27T02:26:51.586Z,76.70
2022-09-27T02:30:01.074Z,76.70
2022-09-27T02:33:03.672Z,76.80
2022-09-27T02:36:06.275Z,76.70
2022-09-27T02:39:09.024Z,76.70
2022-09-27T02:42:11.855Z,76.70
2022-09-27T02:45:17.513Z,76.70
2022-09-27T02:48:39.720Z,76.70
2022-09-27T02:51:41.965Z,76.70
2022-09-27T02:55:03.306Z,76.80
2022-09-27T02:58:54.680Z,76.80
2022-09-27T03:02:27.874Z,76.80
2022-09-27T03:05:53.426Z,76.80
2022-09-27T03:08:57.075Z,76.90
2022-09-27T03:11:59.602Z,76.90
2022-09-27T03:15:02.055Z,76.90
2022-09-27T03:18:23.353Z,77.00
2022-09-27T03:21:43.766Z,77.10
2022-09-27T03:24:46.245Z,77.00
2022-09-27T03:27:49.047Z,77.10
2022-09-27T03:30:51.596Z,77.10
2022-09-27T03:34:16.838Z,77.20
2022-09-27T03:37:19.019Z,77.20
2022-09-27T03:40:21.238Z,77.20
2022-09-27T03:43:23.447Z,77.30
2022-09-27T03:46:26.286Z,77.30
2022-09-27T03:49:28.560Z,77.30
2022-09-27T03:52:30.760Z,77.40
2022-09-27T03:55:33.087Z,77.50
2022-09-27T03:58:35.195Z,77.50
2022-09-27T04:01:39.069Z,77.50
2022-09-27T04:04:59.646Z,77.60
2022-09-27T04:08:02.013Z,77.70
2022-09-27T04:11:07.266Z,77.70
2022-09-27T04:14:13.137Z,77.70
2022-09-27T04:17:32.718Z,77.80
2022-09-27T04:20:57.578Z,77.80
2022-09-27T04:24:00.010Z,77.90
2022-09-27T04:27:02.426Z,77.90
2022-09-27T04:30:06.328Z,78.00
2022-09-27T04:33:30.999Z,78.00
2022-09-27T04:36:40.886Z,78.00
2022-09-27T04:39:51.860Z,78.20
2022-09-27T04:42:54.575Z,78.30
2022-09-27T04:45:57.438Z,78.20
2022-09-27T04:49:00.375Z,78.30
2022-09-27T04:52:04.071Z,78.40
2022-09-27T04:55:10.914Z,78.60
2022-09-27T04:58:13.260Z,79.90
2022-09-27T05:01:15.437Z,79.90
2022-09-27T05:04:40.433Z,80.40
2022-09-27T05:07:44.212Z,80.30
2022-09-27T05:10:58.618Z,80.80
2022-09-27T05:14:00.763Z,81.30
2022-09-27T05:17:04.599Z,81.00
2022-09-27T05:20:19.703Z,81.40
2022-09-27T05:23:38.093Z,81.10
2022-09-27T05:26:40.267Z,81.40
2022-09-27T05:29:42.448Z,81.50
2022-09-27T05:32:50.223Z,81.30
2022-09-27T05:36:02.380Z,81.30
2022-09-27T05:39:07.323Z,80.90
2022-09-27T05:42:11.660Z,81.00
2022-09-27T05:45:14.410Z,80.80
2022-09-27T05:48:16.715Z,80.60
2022-09-27T05:51:25.441Z,80.50
2022-09-27T05:54:29.664Z,80.50
2022-09-27T05:57:34.912Z,80.80
2022-09-27T06:00:40.248Z,80.60
2022-09-27T06:04:04.899Z,80.50
2022-09-27T06:07:36.885Z,80.70
2022-09-27T06:10:42.762Z,80.60
2022-09-27T06:13:45.174Z,80.70
2022-09-27T06:16:48.376Z,80.50
2022-09-27T06:19:50.688Z,80.50
2022-09-27T06:22:54.223Z,80.50
2022-09-27T06:26:00.774Z,80.50
2022-09-27T06:29:12.742Z,80.80
2022-09-27T06:32:21.566Z,80.70
2022-09-27T06:35:31.780Z,80.60
2022-09-27T06:38:34.375Z,80.70
2022-09-27T06:42:11.872Z,80.50
2022-09-27T06:45:31.835Z,80.60
2022-09-27T06:48:53.083Z,80.80
2022-09-27T06:51:57.183Z,80.80
2022-09-27T06:54:59.476Z,80.90
2022-09-27T06:58:20.632Z,81.00
2022-09-27T07:01:43.300Z,81.10
2022-09-27T07:04:54.847Z,81.50
2022-09-27T07:08:17.154Z,81.50
2022-09-27T07:11:20.232Z,81.70
2022-09-27T07:14:22.457Z,82.50
2022-09-27T07:17:25.865Z,81.80
2022-09-27T07:20:29.648Z,81.90
2022-09-27T07:23:32.015Z,82.00
2022-09-27T07:26:34.779Z,82.50
2022-09-27T07:29:37.957Z,81.90
2022-09-27T07:32:40.641Z,82.00
2022-09-27T07:35:45.425Z,81.80
2022-09-27T07:38:47.643Z,82.10
2022-09-27T07:41:53.158Z,82.10
2022-09-27T07:44:56.199Z,81.90
2022-09-27T07:48:17.572Z,82.00
2022-09-27T07:51:54.975Z,82.00
2022-09-27T07:55:19.226Z,82.00
2022-09-27T07:58:44.440Z,82.00
2022-09-27T08:01:46.784Z,81.90
2022-09-27T08:04:48.924Z,81.90
2022-09-27T08:07:56.635Z,81.80
2022-09-27T08:11:00.261Z,81.90
2022-09-27T08:14:02.616Z,81.80
2022-09-27T08:17:06.374Z,81.70
2022-09-27T08:20:28.048Z,81.70
2022-09-27T08:23:42.953Z,81.80
2022-09-27T08:26:50.596Z,81.70
2022-09-27T08:30:05.192Z,81.50
2022-09-27T08:33:07.361Z,81.50
2022-09-27T08:36:13.334Z,81.50
2022-09-27T08:39:16.360Z,81.50
2022-09-27T08:42:47.088Z,81.30
2022-09-27T08:45:56.046Z,81.40
2022-09-27T08:49:10.016Z,81.40
2022-09-27T08:52:32.054Z,81.40
2022-09-27T08:55:44.325Z,81.40
2022-09-27T08:59:21.282Z,81.30
2022-09-27T09:02:26.237Z,81.30
2022-09-27T09:05:36.511Z,81.30
2022-09-27T09:08:51.392Z,81.30
2022-09-27T09:12:27.580Z,81.30
2022-09-27T09:15:54.629Z,81.10
2022-09-27T09:19:21.386Z,81.20
2022-09-27T09:22:41.130Z,81.00
2022-09-27T09:26:02.089Z,81.10
2022-09-27T09:29:19.363Z,81.00
2022-09-27T09:32:52.230Z,81.00
2022-09-27T09:36:33.491Z,81.10
2022-09-27T09:39:57.852Z,80.90
2022-09-27T09:42:59.964Z,80.80
2022-09-27T09:46:09.930Z,80.90
2022-09-27T09:49:27.332Z,80.80
2022-09-27T09:52:40.917Z,80.70
2022-09-27T09:55:51.388Z,80.80
2022-09-27T09:59:05.399Z,80.70
2022-09-27T10:02:40.468Z,80.60
2022-09-27T10:05:49.055Z,80.60
2022-09-27T10:08:54.820Z,80.50
2022-09-27T10:12:17.477Z,80.60
2022-09-27T10:15:24.313Z,80.50
2022-09-27T10:18:28.461Z,80.40
2022-09-27T10:21:32.799Z,80.40
2022-09-27T10:24:57.989Z,80.30
2022-09-27T10:28:46.060Z,80.40
2022-09-27T10:31:50.484Z,80.20
2022-09-27T10:34:55.739Z,80.30
2022-09-27T10:38:19.007Z,80.20
2022-09-27T10:41:32.753Z,80.20
2022-09-27T10:44:39.354Z,80.10
2022-09-27T10:47:59.009Z,80.10
2022-09-27T10:51:31.751Z,80.20
2022-09-27T10:54:37.284Z,80.20
2022-09-27T10:57:44.307Z,80.00
2022-09-27T11:00:56.723Z,80.00
2022-09-27T11:04:00.252Z,79.90
2022-09-27T11:07:20.343Z,79.90
2022-09-27T11:10:37.683Z,79.80
2022-09-27T11:13:41.887Z,79.80
2022-09-27T11:16:56.712Z,79.80
2022-09-27T11:20:09.094Z,79.70
2022-09-27T11:23:40.520Z,79.70
2022-09-27T11:26:50.162Z,79.60
2022-09-27T11:30:04.568Z,79.50
2022-09-27T11:34:02.226Z,79.50
2022-09-27T11:37:24.249Z,79.50
2022-09-27T11:40:44.929Z,79.40
2022-09-27T11:44:29.518Z,79.30
2022-09-27T11:47:43.597Z,79.30
2022-09-27T11:51:07.326Z,79.20
2022-09-27T11:54:23.172Z,79.20
2022-09-27T11:57:54.088Z,79.10
2022-09-27T12:01:28.675Z,79.10
2022-09-27T12:05:08.407Z,79.00
2022-09-27T12:08:23.595Z,79.00
2022-09-27T12:11:25.846Z,78.80
2022-09-27T12:14:45.571Z,78.80
2022-09-27T12:17:52.289Z,78.80
2022-09-27T12:20:55.589Z,78.60
2022-09-27T12:23:58.998Z,78.60
2022-09-27T12:27:15.724Z,78.60
2022-09-27T12:30:18.108Z,78.60
2022-09-27T12:33:40.080Z,78.50
2022-09-27T12:36:51.866Z,78.40
2022-09-27T12:40:15.334Z,78.40
2022-09-27T12:43:21.263Z,78.30
2022-09-27T12:46:54.511Z,78.20
2022-09-27T12:50:01.125Z,78.20
2022-09-27T12:53:24.921Z,78.10
2022-09-27T12:56:48.010Z,78.10
2022-09-27T13:00:19.446Z,77.90
2022-09-27T13:03:41.375Z,78.00
2022-09-27T13:06:57.109Z,77.90
2022-09-27T13:10:29.580Z,77.80
2022-09-27T13:13:36.867Z,78.50
2022-09-27T13:16:44.885Z,77.60
2022-09-27T13:19:48.686Z,77.60
2022-09-27T13:22:51.964Z,77.50
2022-09-27T13:26:45.771Z,77.40
2022-09-27T13:29:50.454Z,77.50
2022-09-27T13:33:10.978Z,77.30
2022-09-27T13:36:29.745Z,77.40
2022-09-27T13:39:40.743Z,77.30
2022-09-27T13:43:13.333Z,76.90
2022-09-27T13:46:29.349Z,76.80
2022-09-27T13:49:46.201Z,77.00
2022-09-27T13:53:03.416Z,76.90
2022-09-27T13:56:26.530Z,76.90
2022-09-27T13:59:44.111Z,76.80
2022-09-27T14:03:12.080Z,76.70
2022-09-27T14:06:21.130Z,76.70
2022-09-27T14:09:30.741Z,76.40
2022-09-27T14:12:42.535Z,76.50
2022-09-27T14:15:48.190Z,76.50
2022-09-27T14:18:58.214Z,77.10
2022-09-27T14:22:16.570Z,76.50
2022-09-27T14:25:50.076Z,76.30
2022-09-27T14:28:54.724Z,76.30
2022-09-27T14:32:06.268Z,76.20
2022-09-27T14:35:40.702Z,76.10
2022-09-27T14:38:43.081Z,76.00
2022-09-27T14:41:53.699Z,76.00
2022-09-27T14:45:01.160Z,76.00
2022-09-27T14:48:19.875Z,75.80
2022-09-27T14:51:29.171Z,76.00
2022-09-27T14:54:31.858Z,75.90
2022-09-27T14:57:36.053Z,75.90
2022-09-27T15:00:38.771Z,75.80
2022-09-27T15:03:44.582Z,75.70
2022-09-27T15:06:48.286Z,75.70
2022-09-27T15:09:51.685Z,75.60
2022-09-27T15:13:01.589Z,75.70
2022-09-27T15:16:16.599Z,75.60
2022-09-27T15:19:27.966Z,75.60
2022-09-27T15:22:43.994Z,75.60
2022-09-27T15:26:01.181Z,75.60
2022-09-27T15:29:03.942Z,75.60
2022-09-27T15:32:07.851Z,75.50
2022-09-27T15:35:10.595Z,75.50
2022-09-27T15:38:47.554Z,75.50
2022-09-27T15:42:17.618Z,75.50
2022-09-27T15:45:36.575Z,75.50
2022-09-27T15:48:38.733Z,75.40
2022-09-27T15:51:46.983Z,75.40
2022-09-27T15:54:52.193Z,75.50
2022-09-27T15:58:21.820Z,75.40
2022-09-27T16:01:24.434Z,75.50
2022-09-27T16:04:31.284Z,76.10
2022-09-27T16:07:33.436Z,75.30
2022-09-27T16:10:41.709Z,75.50
2022-09-27T16:13:44.880Z,76.10
2022-09-27T16:16:59.098Z,75.50
2022-09-27T16:20:06.019Z,75.40
2022-09-27T16:23:08.835Z,75.40
2022-09-27T16:26:11.383Z,75.40
2022-09-27T16:29:14.991Z,75.40
2022-09-27T16:32:17.310Z,75.50
2022-09-27T16:35:21.138Z,75.30
2022-09-27T16:38:26.162Z,75.40
2022-09-27T16:41:28.329Z,75.30
2022-09-27T16:44:30.547Z,75.40
2022-09-27T16:47:32.825Z,75.40
2022-09-27T16:50:53.547Z,75.60
2022-09-27T16:53:55.795Z,75.60
2022-09-27T16:56:59.130Z,75.50
2022-09-27T17:00:01.875Z,75.50
2022-09-27T17:03:04.020Z,75.40
2022-09-27T17:06:06.373Z,75.30
2022-09-27T17:09:08.902Z,75.10
2022-09-27T17:12:12.150Z,75.10
2022-09-27T17:15:16.584Z,75.10
2022-09-27T17:18:18.746Z,75.00
2022-09-27T17:21:21.166Z,75.00
2022-09-27T17:24:23.294Z,74.90
2022-09-27T17:27:28.054Z,74.90
2022-09-27T17:30:30.186Z,74.80
2022-09-27T17:33:32.424Z,74.80
2022-09-27T17:36:35.596Z,74.80
2022-09-27T17:39:38.164Z,74.80
2022-09-27T17:42:40.331Z,74.70
2022-09-27T17:45:42.390Z,74.70
2022-09-27T17:49:02.917Z,74.60
2022-09-27T17:52:05.064Z,74.60
2022-09-27T17:55:07.505Z,74.70
2022-09-27T17:58:09.827Z,75.40
2022-09-27T18:01:12.209Z,74.70
2022-09-27T18:04:17.301Z,74.70
2022-09-27T18:07:20.065Z,74.70
2022-09-27T18:10:22.230Z,74.90
2022-09-27T18:13:25.224Z,74.90
2022-09-27T18:16:39.344Z,74.90
2022-09-27T18:19:44.232Z,75.00
2022-09-27T18:22:48.460Z,75.00
2022-09-27T18:25:56.055Z,75.00
2022-09-27T18:29:05.900Z,75.00
2022-09-27T18:32:10.816Z,75.10
2022-09-27T18:35:14.439Z,75.10
2022-09-27T18:38:18.712Z,75.20
2022-09-27T18:41:23.273Z,75.10
2022-09-27T18:44:25.550Z,75.20
2022-09-27T18:47:29.950Z,75.20
2022-09-27T18:50:39.345Z,75.30
2022-09-27T18:53:44.582Z,75.20
2022-09-27T18:56:53.070Z,75.30
2022-09-27T18:59:56.098Z,75.40
2022-09-27T19:03:00.838Z,75.30
2022-09-27T19:06:08.073Z,75.30
2022-09-27T19:09:13.870Z,75.40
2022-09-27T19:12:17.227Z,75.30
2022-09-27T19:15:21.823Z,75.30
2022-09-27T19:18:24.934Z,75.30
2022-09-27T19:21:29.646Z,75.40
2022-09-27T19:24:34.230Z,75.30
2022-09-27T19:27:42.458Z,75.30
2022-09-27T19:30:46.845Z,75.30
2022-09-27T19:33:52.397Z,75.30
2022-09-27T19:36:57.432Z,75.30
2022-09-27T19:39:59.535Z,75.40
2022-09-27T19:43:02.930Z,75.40
2022-09-27T19:46:06.997Z,75.40
2022-09-27T19:49:13.039Z,75.40
2022-09-27T19:52:18.536Z,75.40
2022-09-27T19:55:21.914Z,75.40
2022-09-27T19:58:24.164Z,75.50
2022-09-27T20:01:28.758Z,75.40
2022-09-27T20:04:32.885Z,75.60
2022-09-27T20:07:38.000Z,75.40
2022-09-27T20:10:40.429Z,75.40
2022-09-27T20:13:44.844Z,75.30
2022-09-27T20:16:47.565Z,75.40
2022-09-27T20:19:50.562Z,75.40
2022-09-27T20:22:54.386Z,75.30
2022-09-27T20:26:18.860Z,75.40
2022-09-27T20:29:21.642Z,75.30
2022-09-27T20:32:28.304Z,75.20
2022-09-27T20:35:32.887Z,75.20
2022-09-27T20:38:35.523Z,75.30
2022-09-27T20:41:42.721Z,75.20
2022-09-27T20:44:48.677Z,75.30
2022-09-27T20:47:53.304Z,75.30
2022-09-27T20:51:04.635Z,75.30
2022-09-27T20:54:10.687Z,75.30
2022-09-27T20:57:13.244Z,75.20
2022-09-27T21:00:16.280Z,75.30
2022-09-27T21:03:21.794Z,75.30
2022-09-27T21:06:24.633Z,75.30
2022-09-27T21:09:26.823Z,75.50
2022-09-27T21:12:30.051Z,75.40
2022-09-27T21:15:32.906Z,75.40
2022-09-27T21:18:36.285Z,75.40
2022-09-27T21:21:38.432Z,75.40
2022-09-27T21:24:40.706Z,75.50
2022-09-27T21:27:43.274Z,75.30
2022-09-27T21:30:45.594Z,75.40
2022-09-27T21:33:50.545Z,75.40
2022-09-27T21:36:52.761Z,75.40
2022-09-27T21:39:55.323Z,75.40
2022-09-27T21:42:57.983Z,75.50
2022-09-27T21:46:05.061Z,75.40
2022-09-27T21:49:07.249Z,75.40
2022-09-27T21:52:09.355Z,75.40
2022-09-27T21:55:11.502Z,75.30
2022-09-27T21:58:13.962Z,75.30
2022-09-27T22:01:20.847Z,75.30
2022-09-27T22:04:23.073Z,75.40
2022-09-27T22:07:25.358Z,75.30
2022-09-27T22:10:27.478Z,75.30
2022-09-27T22:13:29.693Z,75.30
2022-09-27T22:16:31.889Z,75.30
2022-09-27T22:19:34.083Z,75.30
2022-09-27T22:22:36.208Z,75.30
2022-09-27T22:25:38.664Z,75.30
2022-09-27T22:28:41.396Z,75.20
2022-09-27T22:31:43.600Z,75.20
2022-09-27T22:34:45.930Z,75.20
2022-09-27T22:37:48.205Z,75.20
2022-09-27T22:40:57.786Z,75.30
2022-09-27T22:44:01.691Z,76.00
2022-09-27T22:47:03.998Z,75.20
2022-09-27T22:50:06.612Z,75.20
2022-09-27T22:53:09.022Z,75.20
2022-09-27T22:56:15.419Z,75.20
2022-09-27T22:59:17.945Z,75.10
2022-09-27T23:02:20.222Z,75.10
2022-09-27T23:05:23.148Z,75.10
2022-09-27T23:08:25.319Z,75.10
2022-09-27T23:11:27.496Z,75.10
2022-09-27T23:14:30.002Z,75.20
2022-09-27T23:17:33.942Z,75.10
2022-09-27T23:20:43.801Z,75.10
2022-09-27T23:23:46.796Z,75.20
2022-09-27T23:27:08.870Z,75.10
2022-09-27T23:30:21.424Z,75.10
2022-09-27T23:33:23.617Z,75.20
2022-09-27T23:36:30.220Z,75.10
2022-09-27T23:39:33.595Z,75.10
2022-09-27T23:42:36.161Z,75.20
2022-09-27T23:45:38.918Z,75.10
2022-09-27T23:48:41.389Z,75.10
2022-09-27T23:51:45.419Z,75.10
2022-09-27T23:54:47.605Z,75.10
2022-09-27T23:57:50.748Z,75.00
